Time;durP1;ratioP1;P1;durP2;ratioP2;P2;SDS_P1;SDS_P2;PMS_P1;PMS_P2;Temp;Humidity;BMP_temperature;BMP_pressure;BME280_temperature;BME280_humidity;BME280_pressure;Samples;Min_cycle;Max_cycle;Signal;HPM_P1;HPM_P2
2022/05/19 00:00:34;;;;;;;;;;;;;;;;;;4976362;28;20025;-58
2022/05/19 00:03:00;;;;;;;;;;;;;;;;;;4975453;28;19922;-59
2022/05/19 00:05:27;;;;;;;;;;;;;;;;;;4975102;28;20052;-58
2022/05/19 00:07:52;;;;;;;;;;;;;;;;;;4976976;28;19977;-58
2022/05/19 00:10:20;;;;;;;;;;;;;;;;;;4981062;28;19926;-59
2022/05/19 00:12:46;;;;;;;;;;;;;;;;;;4974375;28;19952;-58
2022/05/19 00:15:12;;;;;;;;;;;;;;;;;;4975552;28;19937;-58
2022/05/19 00:17:37;;;;;;;;;;;;;;;;;;4981083;28;19925;-58
2022/05/19 00:20:05;;;;;;;;;;;;;;;;;;4974148;28;20345;-58
2022/05/19 00:22:30;;;;;;;;;;;;;;;;;;5001285;28;20468;-59
2022/05/19 00:25:00;;;;;;;;;;;;;;;;;;4975149;28;19917;-59
2022/05/19 00:27:26;;;;;;;;;;;;;;;;;;4975369;28;19925;-59
2022/05/19 00:29:51;;;;;;;;;;;;;;;;;;4972480;28;20266;-58
2022/05/19 00:32:17;;;;;;;;;;;;;;;;;;4981125;28;19960;-59
2022/05/19 00:34:42;;;;;;;;;;;;;;;;;;4980811;28;19918;-58
2022/05/19 00:37:08;;;;;;;;;;;;;;;;;;4983650;28;19921;-58
2022/05/19 00:39:33;;;;;;;;;;;;;;;;;;4980102;28;19925;-58
2022/05/19 00:44:47;;;;;;;;;;;;;;;;;;4979893;28;19922;-59
2022/05/19 00:47:12;;;;;;;;;;;;;;;;;;4974260;28;19928;-59
2022/05/19 00:49:42;;;;;;;;;;;;;;;;;;4979334;28;20001;-59
2022/05/19 00:52:10;;;;;;;;;;;;;;;;;;5011486;28;19935;-58
2022/05/19 00:54:35;;;;;;;;;;;;;;;;;;4980257;28;19925;-59
2022/05/19 00:57:01;;;;;;;;;;;;;;;;;;4979493;28;20024;-56
2022/05/19 00:59:29;;;;;;;;;;;;;;;;;;4979694;28;19922;-58
2022/05/19 01:01:55;;;;;;;;;;;;;;;;;;4981042;28;19976;-59
2022/05/19 01:04:20;;;;;;;;;;;;;;;;;;5000557;28;19918;-58
2022/05/19 01:06:50;;;;;;;;;;;;;;;;;;4976791;28;19921;-57
2022/05/19 01:09:21;;;;;;;;;;;;;;;;;;4983518;28;19921;-58
2022/05/19 01:11:54;;;;;;;;;;;;;;;;;;4978885;28;19922;-59
2022/05/19 01:14:21;;;;;;;;;;;;;;;;;;4981017;28;19933;-58
2022/05/19 01:16:46;;;;;;;;;;;;;;;;;;4979889;28;19922;-58
2022/05/19 01:19:12;;;;;;;;;;;;;;;;;;4980067;28;19932;-64
2022/05/19 01:21:39;;;;;;;;;;;;;;;;;;4978314;28;19926;-59
2022/05/19 01:24:09;;;;;;;;;;;;;;;;;;5010521;28;19918;-60
2022/05/19 01:26:35;;;;;;;;;;;;;;;;;;4977315;28;19921;-58
2022/05/19 01:29:03;;;;;;;;;;;;;;;;;;4981714;28;20689;-59
2022/05/19 01:31:29;;;;;;;;;;;;;;;;;;4978202;28;19922;-58
2022/05/19 01:33:56;;;;;;;;;;;;;;;;;;4978050;28;19921;-58
2022/05/19 01:36:25;;;;;;;;;;;;;;;;;;4978059;28;19925;-58
2022/05/19 01:38:50;;;;;;;;;;;;;;;;;;4976599;28;19921;-60
2022/05/19 01:41:15;;;;;;;;;;;;;;;;;;4979918;28;19973;-57
2022/05/19 01:43:43;;;;;;;;;;;;;;;;;;4972088;28;19945;-58
2022/05/19 01:46:08;;;;;;;;;;;;;;;;;;4977753;28;19922;-60
2022/05/19 01:48:33;;;;;;;;;;;;;;;;;;4979570;28;19960;-58
2022/05/19 01:50:59;;;;;;;;;;;;;;;;;;4977258;28;19937;-52
2022/05/19 01:53:30;;;;;;;;;;;;;;;;;;4979233;28;19930;-57
2022/05/19 01:55:57;;;;;;;;;;;;;;;;;;4979558;28;19917;-57
2022/05/19 01:58:23;;;;;;;;;;;;;;;;;;5007926;28;19925;-58
2022/05/19 02:00:50;;;;;;;;;;;;;;;;;;4978472;28;19925;-59
2022/05/19 02:03:18;;;;;;;;;;;;;;;;;;5001261;28;20010;-58
2022/05/19 02:05:43;;;;;;;;;;;;;;;;;;4979017;28;19992;-59
2022/05/19 02:08:08;;;;;;;;;;;;;;;;;;4965683;28;20028;-59
2022/05/19 02:10:36;;;;;;;;;;;;;;;;;;4978880;28;19917;-59
2022/05/19 02:13:04;;;;;;;;;;;;;;;;;;4966214;28;19968;-60
2022/05/19 02:15:30;;;;;;;;;;;;;;;;;;4977191;28;19940;-65
2022/05/19 02:17:57;;;;;;;;;;;;;;;;;;4980569;28;19922;-57
2022/05/19 02:20:23;;;;;;;;;;;;;;;;;;4977595;28;19999;-53
2022/05/19 02:22:48;;;;;;;;;;;;;;;;;;4982552;28;19921;-48
2022/05/19 02:25:16;;;;;;;;;;;;;;;;;;4980650;28;19941;-54
2022/05/19 02:27:42;;;;;;;;;;;;;;;;;;4979026;28;19957;-56
2022/05/19 02:30:09;;;;;;;;;;;;;;;;;;4985637;28;19921;-59
2022/05/19 02:32:38;;;;;;;;;;;;;;;;;;4977114;28;19918;-59
2022/05/19 02:35:05;;;;;;;;;;;;;;;;;;4976133;28;20040;-57
2022/05/19 02:37:33;;;;;;;;;;;;;;;;;;5008963;28;19933;-58
2022/05/19 02:40:00;;;;;;;;;;;;;;;;;;4981467;28;19925;-57
2022/05/19 02:42:25;;;;;;;;;;;;;;;;;;4976273;28;19999;-58
2022/05/19 02:44:53;;;;;;;;;;;;;;;;;;4978509;28;19955;-59
2022/05/19 02:47:18;;;;;;;;;;;;;;;;;;4982165;28;20516;-59
2022/05/19 02:49:44;;;;;;;;;;;;;;;;;;4978256;28;20609;-58
2022/05/19 02:52:11;;;;;;;;;;;;;;;;;;5008211;28;20006;-58
2022/05/19 02:54:39;;;;;;;;;;;;;;;;;;4977947;28;19921;-58
2022/05/19 02:57:05;;;;;;;;;;;;;;;;;;4975680;28;19983;-57
2022/05/19 02:59:30;;;;;;;;;;;;;;;;;;4978587;28;19921;-58
2022/05/19 03:02:00;;;;;;;;;;;;;;;;;;4980768;28;19926;-58
2022/05/19 03:04:28;;;;;;;;;;;;;;;;;;4979504;28;20000;-58
2022/05/19 03:06:53;;;;;;;;;;;;;;;;;;4978344;28;19925;-58
2022/05/19 03:09:21;;;;;;;;;;;;;;;;;;4973888;28;20519;-58
2022/05/19 03:11:46;;;;;;;;;;;;;;;;;;4976371;28;19979;-59
2022/05/19 03:14:12;;;;;;;;;;;;;;;;;;4983617;28;19928;-58
2022/05/19 03:16:39;;;;;;;;;;;;;;;;;;4975477;28;20836;-58
2022/05/19 03:19:05;;;;;;;;;;;;;;;;;;4979894;28;19922;-58
2022/05/19 03:21:31;;;;;;;;;;;;;;;;;;4994189;28;19936;-59
2022/05/19 03:23:56;;;;;;;;;;;;;;;;;;4979480;28;19926;-59
2022/05/19 03:26:24;;;;;;;;;;;;;;;;;;4975118;28;19964;-59
2022/05/19 03:28:49;;;;;;;;;;;;;;;;;;4976084;28;19928;-59
2022/05/19 03:31:19;;;;;;;;;;;;;;;;;;5004883;28;19922;-58
2022/05/19 03:33:44;;;;;;;;;;;;;;;;;;4977160;28;20381;-59
2022/05/19 03:36:10;;;;;;;;;;;;;;;;;;5009402;28;19933;-58
2022/05/19 03:38:36;;;;;;;;;;;;;;;;;;4976186;28;19961;-59
2022/05/19 03:41:01;;;;;;;;;;;;;;;;;;4974781;28;20594;-57
2022/05/19 03:43:27;;;;;;;;;;;;;;;;;;4973873;28;19928;-58
2022/05/19 03:45:52;;;;;;;;;;;;;;;;;;4976766;28;19918;-57
2022/05/19 03:48:17;;;;;;;;;;;;;;;;;;4976323;28;19921;-58
2022/05/19 03:50:45;;;;;;;;;;;;;;;;;;4977326;28;19921;-58
2022/05/19 03:53:11;;;;;;;;;;;;;;;;;;4984832;28;19968;-58
2022/05/19 03:55:36;;;;;;;;;;;;;;;;;;5009400;28;20592;-58
2022/05/19 03:58:01;;;;;;;;;;;;;;;;;;4996377;28;20026;-59
2022/05/19 04:00:29;;;;;;;;;;;;;;;;;;5009047;28;19925;-57
2022/05/19 04:02:55;;;;;;;;;;;;;;;;;;4978189;28;19940;-58
2022/05/19 04:05:23;;;;;;;;;;;;;;;;;;5006092;28;20373;-58
2022/05/19 04:07:48;;;;;;;;;;;;;;;;;;4978656;28;19926;-58
2022/05/19 04:10:16;;;;;;;;;;;;;;;;;;4975955;28;19932;-55
2022/05/19 04:12:43;;;;;;;;;;;;;;;;;;4994623;28;19922;-57
2022/05/19 04:15:10;;;;;;;;;;;;;;;;;;4971896;28;19921;-56
2022/05/19 04:17:36;;;;;;;;;;;;;;;;;;4976174;28;19951;-57
2022/05/19 04:20:04;;;;;;;;;;;;;;;;;;4994654;28;20048;-58
2022/05/19 04:22:29;;;;;;;;;;;;;;;;;;4981014;28;20366;-58
2022/05/19 04:25:00;;;;;;;;;;;;;;;;;;4974288;28;19931;-58
2022/05/19 04:27:27;;;;;;;;;;;;;;;;;;4977817;28;21160;-58
2022/05/19 04:29:52;;;;;;;;;;;;;;;;;;4975973;28;19972;-59
2022/05/19 04:32:22;;;;;;;;;;;;;;;;;;4976966;28;19918;-58
2022/05/19 04:34:48;;;;;;;;;;;;;;;;;;4977599;28;20469;-57
2022/05/19 04:37:13;;;;;;;;;;;;;;;;;;4972188;28;19933;-58
2022/05/19 04:39:39;;;;;;;;;;;;;;;;;;5007634;28;19918;-58
2022/05/19 04:42:04;;;;;;;;;;;;;;;;;;4992947;28;19926;-59
2022/05/19 04:44:34;;;;;;;;;;;;;;;;;;4976080;28;20464;-59
2022/05/19 04:47:02;;;;;;;;;;;;;;;;;;4975750;28;19917;-58
2022/05/19 04:49:30;;;;;;;;;;;;;;;;;;4976040;28;19921;-57
2022/05/19 04:51:56;;;;;;;;;;;;;;;;;;4977649;28;20830;-57
2022/05/19 04:54:26;;;;;;;;;;;;;;;;;;4980324;28;19930;-58
2022/05/19 04:56:52;;;;;;;;;;;;;;;;;;4976257;28;19921;-57
2022/05/19 04:59:17;;;;;;;;;;;;;;;;;;4975644;28;19932;-58
2022/05/19 05:01:43;;;;;;;;;;;;;;;;;;5007735;28;19928;-58
2022/05/19 05:04:11;;;;;;;;;;;;;;;;;;4979085;28;20033;-60
2022/05/19 05:06:36;;;;;;;;;;;;;;;;;;4978856;28;19926;-57
2022/05/19 05:09:01;;;;;;;;;;;;;;;;;;4979899;28;19929;-59
2022/05/19 05:11:29;;;;;;;;;;;;;;;;;;4979802;28;19961;-58
2022/05/19 05:13:56;;;;;;;;;;;;;;;;;;4978205;28;19921;-59
2022/05/19 05:16:22;;;;;;;;;;;;;;;;;;4985088;28;19972;-57
2022/05/19 05:18:47;;;;;;;;;;;;;;;;;;4977111;28;19925;-59
2022/05/19 05:21:15;;;;;;;;;;;;;;;;;;5014569;28;19926;-59
2022/05/19 05:23:45;;;;;;;;;;;;;;;;;;4979168;28;19921;-58
2022/05/19 05:26:10;;;;;;;;;;;;;;;;;;4996324;28;19926;-58
2022/05/19 05:28:38;;;;;;;;;;;;;;;;;;4987129;28;20385;-59
2022/05/19 05:31:06;;;;;;;;;;;;;;;;;;4981159;28;19942;-59
2022/05/19 05:33:31;;;;;;;;;;;;;;;;;;4982417;28;19922;-59
2022/05/19 05:35:59;;;;;;;;;;;;;;;;;;4991988;28;19929;-59
2022/05/19 05:38:27;;;;;;;;;;;;;;;;;;4995676;28;19921;-59
2022/05/19 05:40:52;;;;;;;;;;;;;;;;;;4982325;28;19995;-58
2022/05/19 05:43:18;;;;;;;;;;;;;;;;;;4977991;28;20006;-59
2022/05/19 05:45:44;;;;;;;;;;;;;;;;;;4984198;28;21838;-59
2022/05/19 05:48:09;;;;;;;;;;;;;;;;;;5004654;28;19948;-60
2022/05/19 05:50:34;;;;;;;;;;;;;;;;;;4983150;28;20456;-59
2022/05/19 05:52:59;;;;;;;;;;;;;;;;;;4969821;28;19937;-60
2022/05/19 05:55:25;;;;;;;;;;;;;;;;;;4980808;28;20378;-59
2022/05/19 05:57:50;;;;;;;;;;;;;;;;;;4978574;28;20122;-59
2022/05/19 06:00:18;;;;;;;;;;;;;;;;;;4981014;28;19921;-59
2022/05/19 06:02:44;;;;;;;;;;;;;;;;;;4986469;28;19924;-60
2022/05/19 06:05:12;;;;;;;;;;;;;;;;;;4980758;28;19929;-60
2022/05/19 06:07:39;;;;;;;;;;;;;;;;;;4976901;28;19918;-58
2022/05/19 06:10:06;;;;;;;;;;;;;;;;;;4991516;28;20798;-60
2022/05/19 06:12:32;;;;;;;;;;;;;;;;;;4978397;28;19929;-59
2022/05/19 06:14:57;;;;;;;;;;;;;;;;;;4990953;28;19921;-59
2022/05/19 06:17:24;;;;;;;;;;;;;;;;;;4998748;28;19918;-59
2022/05/19 06:19:50;;;;;;;;;;;;;;;;;;4978501;28;19971;-58
2022/05/19 06:22:18;;;;;;;;;;;;;;;;;;4980214;28;19956;-58
2022/05/19 06:24:43;;;;;;;;;;;;;;;;;;5011977;28;19925;-59
2022/05/19 06:27:11;;;;;;;;;;;;;;;;;;5002468;28;19969;-59
2022/05/19 06:29:39;;;;;;;;;;;;;;;;;;4990709;28;19914;-59
2022/05/19 06:32:04;;;;;;;;;;;;;;;;;;4982674;28;19921;-59
2022/05/19 06:34:31;;;;;;;;;;;;;;;;;;4990562;28;21839;-58
2022/05/19 06:36:57;;;;;;;;;;;;;;;;;;4981550;28;20019;-58
2022/05/19 06:39:22;;;;;;;;;;;;;;;;;;5015884;28;20332;-58
2022/05/19 06:42:00;;;;;;;;;;;;;;;;;;4980504;28;20008;-58
2022/05/19 06:44:26;;;;;;;;;;;;;;;;;;4980839;28;19949;-58
2022/05/19 06:46:52;;;;;;;;;;;;;;;;;;4978437;28;19988;-60
2022/05/19 06:49:17;;;;;;;;;;;;;;;;;;4976478;28;19961;-60
2022/05/19 06:51:43;;;;;;;;;;;;;;;;;;4977536;28;19918;-60
2022/05/19 06:54:08;;;;;;;;;;;;;;;;;;4978799;28;19930;-60
2022/05/19 06:56:35;;;;;;;;;;;;;;;;;;4992396;28;19917;-59
2022/05/19 06:59:00;;;;;;;;;;;;;;;;;;4986884;28;19928;-62
2022/05/19 07:01:28;;;;;;;;;;;;;;;;;;4979160;28;20013;-59
2022/05/19 07:03:55;;;;;;;;;;;;;;;;;;5009946;28;20993;-59
2022/05/19 07:06:20;;;;;;;;;;;;;;;;;;4980651;28;19929;-59
2022/05/19 07:08:48;;;;;;;;;;;;;;;;;;4974106;28;21775;-59
2022/05/19 07:11:28;;;;;;;;;;;;;;;;;;4979095;28;19971;-59
2022/05/19 07:13:54;;;;;;;;;;;;;;;;;;4978681;28;19922;-58
2022/05/19 07:16:22;;;;;;;;;;;;;;;;;;4974113;28;19921;-59
2022/05/19 07:18:47;;;;;;;;;;;;;;;;;;4980951;28;20480;-59
2022/05/19 07:21:12;;;;;;;;;;;;;;;;;;4975208;28;19933;-59
2022/05/19 07:23:38;;;;;;;;;;;;;;;;;;4977218;28;19918;-59
2022/05/19 07:26:05;;;;;;;;;;;;;;;;;;4977578;28;20396;-58
2022/05/19 07:28:33;;;;;;;;;;;;;;;;;;4976356;28;19925;-59
2022/05/19 07:30:58;;;;;;;;;;;;;;;;;;5008169;28;19936;-58
2022/05/19 07:33:28;;;;;;;;;;;;;;;;;;4977655;28;19972;-58
2022/05/19 07:35:55;;;;;;;;;;;;;;;;;;4976251;28;19925;-59
2022/05/19 07:38:21;;;;;;;;;;;;;;;;;;4964455;28;21758;-59
2022/05/19 07:40:49;;;;;;;;;;;;;;;;;;4979536;28;19926;-59
2022/05/19 07:43:48;;;;;;;;;;;;;;;;;;4980707;28;19924;-59
2022/05/19 07:46:06;;;;;;;;;;;;;;;;;;5009296;28;19989;-59
2022/05/19 07:48:35;;;;;;;;;;;;;;;;;;4978157;28;20108;-58
2022/05/19 07:51:02;;;;;;;;;;;;;;;;;;4977693;28;19921;-58
2022/05/19 07:53:27;;;;;;;;;;;;;;;;;;4991464;28;19926;-58
2022/05/19 07:55:53;;;;;;;;;;;;;;;;;;4977837;28;19949;-59
2022/05/19 07:58:18;;;;;;;;;;;;;;;;;;4981408;28;19924;-59
2022/05/19 08:00:45;;;;;;;;;;;;;;;;;;4978449;28;19925;-59
2022/05/19 08:03:13;;;;;;;;;;;;;;;;;;4978211;28;20700;-58
2022/05/19 08:05:41;;;;;;;;;;;;;;;;;;4977661;28;19922;-58
2022/05/19 08:08:06;;;;;;;;;;;;;;;;;;4978790;28;19925;-58
2022/05/19 08:10:35;;;;;;;;;;;;;;;;;;4978074;28;19922;-58
2022/05/19 08:15:52;;;;;;;;;;;;;;;;;;4983436;28;19918;-58
2022/05/19 08:18:17;;;;;;;;;;;;;;;;;;4976354;28;19929;-58
2022/05/19 08:20:43;;;;;;;;;;;;;;;;;;5009721;28;19928;-59
2022/05/19 08:23:08;;;;;;;;;;;;;;;;;;5009648;28;19975;-59
2022/05/19 08:25:34;;;;;;;;;;;;;;;;;;5009395;28;19917;-59
2022/05/19 08:27:59;;;;;;;;;;;;;;;;;;4976418;28;19929;-58
2022/05/19 08:30:27;;;;;;;;;;;;;;;;;;4981883;28;20452;-59
2022/05/19 08:32:55;;;;;;;;;;;;;;;;;;4978164;28;19924;-59
2022/05/19 08:35:24;;;;;;;;;;;;;;;;;;4991676;28;19921;-59
2022/05/19 08:37:49;;;;;;;;;;;;;;;;;;4977494;28;19922;-59
2022/05/19 08:40:17;;;;;;;;;;;;;;;;;;4978460;28;20012;-59
2022/05/19 08:42:43;;;;;;;;;;;;;;;;;;4977674;28;19995;-59
2022/05/19 08:45:08;;;;;;;;;;;;;;;;;;4981685;28;19941;-58
2022/05/19 08:47:34;;;;;;;;;;;;;;;;;;4982132;28;20492;-59
2022/05/19 08:50:01;;;;;;;;;;;;;;;;;;4997355;28;20026;-60
2022/05/19 08:52:27;;;;;;;;;;;;;;;;;;4981871;28;21768;-60
2022/05/19 08:54:55;;;;;;;;;;;;;;;;;;4982352;28;19939;-60
2022/05/19 08:57:20;;;;;;;;;;;;;;;;;;4979979;28;20523;-60
2022/05/19 08:59:50;;;;;;;;;;;;;;;;;;4990849;28;19926;-59
2022/05/19 09:02:17;;;;;;;;;;;;;;;;;;4982444;28;19979;-59
2022/05/19 09:04:45;;;;;;;;;;;;;;;;;;4980870;28;19938;-59
2022/05/19 09:09:55;;;;;;;;;;;;;;;;;;4981122;28;19971;-60
2022/05/19 09:12:29;;;;;;;;;;;;;;;;;;4981439;28;19922;-60
2022/05/19 09:14:54;;;;;;;;;;;;;;;;;;4983335;28;19932;-60
2022/05/19 09:17:25;;;;;;;;;;;;;;;;;;4982795;28;21274;-60
2022/05/19 09:19:50;;;;;;;;;;;;;;;;;;4982944;28;19921;-60
2022/05/19 09:22:19;;;;;;;;;;;;;;;;;;4977691;28;20011;-61
2022/05/19 09:24:47;;;;;;;;;;;;;;;;;;4991246;28;19928;-60
2022/05/19 09:27:12;;;;;;;;;;;;;;;;;;4985428;28;19918;-60
2022/05/19 09:29:40;;;;;;;;;;;;;;;;;;4993206;28;19921;-62
2022/05/19 09:32:06;;;;;;;;;;;;;;;;;;4995279;28;20766;-60
2022/05/19 09:34:32;;;;;;;;;;;;;;;;;;5005436;28;19927;-61
2022/05/19 09:37:01;;;;;;;;;;;;;;;;;;4987754;28;19980;-61
2022/05/19 09:39:27;;;;;;;;;;;;;;;;;;4974777;28;19922;-61
2022/05/19 09:41:53;;;;;;;;;;;;;;;;;;4984858;28;19987;-60
2022/05/19 09:44:18;;;;;;;;;;;;;;;;;;5000658;28;19979;-61
2022/05/19 09:46:44;;;;;;;;;;;;;;;;;;5015663;28;19929;-60
2022/05/19 09:49:11;;;;;;;;;;;;;;;;;;4989063;28;19922;-60
2022/05/19 09:51:39;;;;;;;;;;;;;;;;;;4984658;28;19932;-61
2022/05/19 09:54:12;;;;;;;;;;;;;;;;;;5015836;28;20012;-60
2022/05/19 09:56:40;;;;;;;;;;;;;;;;;;4984068;28;20498;-59
2022/05/19 09:59:05;;;;;;;;;;;;;;;;;;4985936;28;19921;-61
2022/05/19 10:01:33;;;;;;;;;;;;;;;;;;5015396;28;19991;-60
2022/05/19 10:03:58;;;;;;;;;;;;;;;;;;4984315;28;19918;-59
2022/05/19 10:06:26;;;;;;;;;;;;;;;;;;4985272;28;19921;-60
2022/05/19 10:08:52;;;;;;;;;;;;;;;;;;5000626;28;19944;-59
2022/05/19 10:11:21;;;;;;;;;;;;;;;;;;4984577;28;19934;-59
2022/05/19 10:13:48;;;;;;;;;;;;;;;;;;4984336;28;20008;-58
2022/05/19 10:16:13;;;;;;;;;;;;;;;;;;4975014;28;19926;-58
2022/05/19 10:18:41;;;;;;;;;;;;;;;;;;5015531;28;19925;-59
2022/05/19 10:21:07;;;;;;;;;;;;;;;;;;4984164;28;19936;-58
2022/05/19 10:23:32;;;;;;;;;;;;;;;;;;4983430;28;19960;-58
2022/05/19 10:26:00;;;;;;;;;;;;;;;;;;5015453;28;20021;-59
2022/05/19 10:31:12;;;;;;;;;;;;;;;;;;4984561;28;19929;-60
2022/05/19 10:33:38;;;;;;;;;;;;;;;;;;4984850;28;20290;-59
2022/05/19 10:36:03;;;;;;;;;;;;;;;;;;5016045;28;19925;-60
2022/05/19 10:38:31;;;;;;;;;;;;;;;;;;4983513;28;19917;-59
2022/05/19 10:40:57;;;;;;;;;;;;;;;;;;5006750;28;19968;-60
2022/05/19 10:43:22;;;;;;;;;;;;;;;;;;4984355;28;20329;-59
2022/05/19 10:45:50;;;;;;;;;;;;;;;;;;5005035;28;19924;-60
2022/05/19 10:48:15;;;;;;;;;;;;;;;;;;4982335;28;20368;-58
2022/05/19 10:50:41;;;;;;;;;;;;;;;;;;4991558;28;21003;-60
2022/05/19 10:53:09;;;;;;;;;;;;;;;;;;4986356;28;19952;-60
2022/05/19 10:55:37;;;;;;;;;;;;;;;;;;4983272;28;20634;-60
2022/05/19 10:58:03;;;;;;;;;;;;;;;;;;4984420;28;19995;-58
2022/05/19 11:00:29;;;;;;;;;;;;;;;;;;4983416;28;20027;-60
2022/05/19 11:02:57;;;;;;;;;;;;;;;;;;4984463;28;19917;-60
2022/05/19 11:05:22;;;;;;;;;;;;;;;;;;4990138;28;20456;-61
2022/05/19 11:07:49;;;;;;;;;;;;;;;;;;4982819;28;19987;-58
2022/05/19 11:10:14;;;;;;;;;;;;;;;;;;4983446;28;20000;-60
2022/05/19 11:12:40;;;;;;;;;;;;;;;;;;4983697;28;19928;-58
2022/05/19 11:15:11;;;;;;;;;;;;;;;;;;4998270;28;20048;-59
2022/05/19 11:17:38;;;;;;;;;;;;;;;;;;5002255;28;19928;-58
2022/05/19 11:20:05;;;;;;;;;;;;;;;;;;5005723;28;20305;-59
2022/05/19 11:22:31;;;;;;;;;;;;;;;;;;4974141;28;20624;-58
2022/05/19 11:27:45;;;;;;;;;;;;;;;;;;4983300;28;19929;-60
2022/05/19 11:30:14;;;;;;;;;;;;;;;;;;4987569;28;19972;-57
2022/05/19 11:32:42;;;;;;;;;;;;;;;;;;4983045;28;20012;-59
2022/05/19 11:35:11;;;;;;;;;;;;;;;;;;5013729;28;19956;-58
2022/05/19 11:37:37;;;;;;;;;;;;;;;;;;4980647;28;20010;-58
2022/05/19 11:40:02;;;;;;;;;;;;;;;;;;4990209;28;20015;-61
2022/05/19 11:42:28;;;;;;;;;;;;;;;;;;4998491;28;19944;-60
2022/05/19 11:44:53;;;;;;;;;;;;;;;;;;4982568;28;19959;-61
2022/05/19 11:55:12;;;;;;;;;;;;;;;;;;5004133;28;19925;-59
2022/05/19 11:55:39;;;;;;;;;;;;;;;;;;4983439;28;19921;-60
2022/05/19 11:58:09;;;;;;;;;;;;;;;;;;4981882;28;19921;-59
2022/05/19 12:00:35;;;;;;;;;;;;;;;;;;5001259;28;20423;-60
2022/05/19 12:03:03;;;;;;;;;;;;;;;;;;5015763;28;19921;-61
2022/05/19 12:05:29;;;;;;;;;;;;;;;;;;4983058;28;19917;-60
2022/05/19 12:07:54;;;;;;;;;;;;;;;;;;4981683;28;19999;-59
2022/05/19 12:10:21;;;;;;;;;;;;;;;;;;4983406;28;19922;-60
2022/05/19 12:12:46;;;;;;;;;;;;;;;;;;4983041;28;20044;-60
2022/05/19 12:15:11;;;;;;;;;;;;;;;;;;4980775;28;20028;-59
2022/05/19 12:17:41;;;;;;;;;;;;;;;;;;4983682;28;20401;-60
2022/05/19 12:20:10;;;;;;;;;;;;;;;;;;4995629;28;20033;-57
2022/05/19 12:22:35;;;;;;;;;;;;;;;;;;4987918;28;19936;-60
2022/05/19 12:25:01;;;;;;;;;;;;;;;;;;4986536;28;19952;-60
2022/05/19 12:27:28;;;;;;;;;;;;;;;;;;4990506;28;19925;-60
2022/05/19 12:29:56;;;;;;;;;;;;;;;;;;4982489;28;19922;-60
2022/05/19 12:32:26;;;;;;;;;;;;;;;;;;4984586;28;19942;-60
2022/05/19 12:34:56;;;;;;;;;;;;;;;;;;4982604;28;20791;-59
2022/05/19 12:37:22;;;;;;;;;;;;;;;;;;4983021;28;19996;-61
2022/05/19 12:39:49;;;;;;;;;;;;;;;;;;4982469;28;19921;-59
2022/05/19 12:42:17;;;;;;;;;;;;;;;;;;4984638;28;19968;-60
2022/05/19 12:44:45;;;;;;;;;;;;;;;;;;4981728;28;20152;-60
2022/05/19 12:47:11;;;;;;;;;;;;;;;;;;4987960;28;21330;-58
2022/05/19 12:49:37;;;;;;;;;;;;;;;;;;4986003;28;19952;-59
2022/05/19 12:52:02;;;;;;;;;;;;;;;;;;4989356;28;20040;-61
2022/05/19 12:54:27;;;;;;;;;;;;;;;;;;4985711;28;19961;-60
2022/05/19 12:56:56;;;;;;;;;;;;;;;;;;5012886;28;19964;-58
2022/05/19 12:59:23;;;;;;;;;;;;;;;;;;4983646;28;19925;-72
2022/05/19 13:01:48;;;;;;;;;;;;;;;;;;4983389;28;19929;-69
2022/05/19 13:04:13;;;;;;;;;;;;;;;;;;4970962;28;20540;-65
2022/05/19 13:06:39;;;;;;;;;;;;;;;;;;5005629;28;19925;-64
2022/05/19 13:09:04;;;;;;;;;;;;;;;;;;4981365;28;20455;-64
2022/05/19 13:11:31;;;;;;;;;;;;;;;;;;4982341;28;19925;-65
2022/05/19 13:13:56;;;;;;;;;;;;;;;;;;5001089;28;19933;-67
2022/05/19 13:16:21;;;;;;;;;;;;;;;;;;4980936;28;20401;-67
2022/05/19 13:18:49;;;;;;;;;;;;;;;;;;4980075;28;20009;-69
2022/05/19 13:21:15;;;;;;;;;;;;;;;;;;4982824;28;21907;-70
2022/05/19 13:23:40;;;;;;;;;;;;;;;;;;4979290;28;19949;-70
2022/05/19 13:26:08;;;;;;;;;;;;;;;;;;4987636;28;19918;-73
2022/05/19 13:31:21;;;;;;;;;;;;;;;;;;4978230;28;19917;-71
2022/05/19 13:33:46;;;;;;;;;;;;;;;;;;4977399;28;19932;-67
2022/05/19 13:36:14;;;;;;;;;;;;;;;;;;4981247;28;19917;-65
2022/05/19 13:38:39;;;;;;;;;;;;;;;;;;4985778;28;21812;-66
2022/05/19 13:41:05;;;;;;;;;;;;;;;;;;4998838;28;19929;-66
2022/05/19 13:43:33;;;;;;;;;;;;;;;;;;4986712;28;19921;-67
2022/05/19 13:46:04;;;;;;;;;;;;;;;;;;4978093;28;19929;-65
2022/05/19 13:48:29;;;;;;;;;;;;;;;;;;5013733;28;20328;-65
2022/05/19 13:50:55;;;;;;;;;;;;;;;;;;5011426;28;19922;-66
2022/05/19 13:53:23;;;;;;;;;;;;;;;;;;4979250;28;19934;-61
2022/05/19 13:55:50;;;;;;;;;;;;;;;;;;4979096;28;19917;-62
2022/05/19 13:58:19;;;;;;;;;;;;;;;;;;4981757;28;19917;-60
2022/05/19 14:00:45;;;;;;;;;;;;;;;;;;4979934;28;19925;-60
2022/05/19 14:03:10;;;;;;;;;;;;;;;;;;4987151;28;19976;-62
2022/05/19 14:05:36;;;;;;;;;;;;;;;;;;4978963;28;19921;-62
2022/05/19 14:08:02;;;;;;;;;;;;;;;;;;4980855;28;19922;-60
2022/05/19 14:10:30;;;;;;;;;;;;;;;;;;4979914;28;23366;-62
2022/05/19 14:12:58;;;;;;;;;;;;;;;;;;4992957;28;19922;-60
2022/05/19 14:15:24;;;;;;;;;;;;;;;;;;4980492;28;19932;-62
2022/05/19 14:17:49;;;;;;;;;;;;;;;;;;4980467;28;19917;-61
2022/05/19 14:20:14;;;;;;;;;;;;;;;;;;4979735;28;19927;-61
2022/05/19 14:22:40;;;;;;;;;;;;;;;;;;4977432;28;19925;-61
2022/05/19 14:25:09;;;;;;;;;;;;;;;;;;4976336;28;19922;-61
2022/05/19 14:27:34;;;;;;;;;;;;;;;;;;4994092;28;19918;-61
2022/05/19 14:30:00;;;;;;;;;;;;;;;;;;4980358;28;19984;-60
2022/05/19 14:32:25;;;;;;;;;;;;;;;;;;5002674;28;19928;-60
2022/05/19 14:34:50;;;;;;;;;;;;;;;;;;4981489;28;19933;-60
2022/05/19 14:37:18;;;;;;;;;;;;;;;;;;4980160;28;20823;-60
2022/05/19 14:39:44;;;;;;;;;;;;;;;;;;4979437;28;19917;-60
2022/05/19 14:44:54;;;;;;;;;;;;;;;;;;4978680;28;19921;-61
2022/05/19 14:47:24;;;;;;;;;;;;;;;;;;4975885;28;20036;-62
2022/05/19 14:49:49;;;;;;;;;;;;;;;;;;4979340;28;19921;-62
2022/05/19 14:52:18;;;;;;;;;;;;;;;;;;5008724;28;19922;-64
2022/05/19 14:54:43;;;;;;;;;;;;;;;;;;4976898;28;20298;-63
2022/05/19 14:57:08;;;;;;;;;;;;;;;;;;4983168;28;19944;-62
2022/05/19 14:59:34;;;;;;;;;;;;;;;;;;4998611;28;19929;-62
2022/05/19 15:02:03;;;;;;;;;;;;;;;;;;4977915;28;20079;-63
2022/05/19 15:04:29;;;;;;;;;;;;;;;;;;4978958;28;19918;-63
2022/05/19 15:06:54;;;;;;;;;;;;;;;;;;4978668;28;20007;-63
2022/05/19 15:09:20;;;;;;;;;;;;;;;;;;4978142;28;19922;-64
2022/05/19 15:11:45;;;;;;;;;;;;;;;;;;4976919;28;19931;-64
2022/05/19 15:14:10;;;;;;;;;;;;;;;;;;4978011;28;20002;-64
2022/05/19 15:16:39;;;;;;;;;;;;;;;;;;4989699;28;19917;-65
2022/05/19 15:19:04;;;;;;;;;;;;;;;;;;4999537;28;19925;-63
2022/05/19 15:21:30;;;;;;;;;;;;;;;;;;4986768;28;21386;-65
2022/05/19 15:23:55;;;;;;;;;;;;;;;;;;4989416;28;20004;-66
2022/05/19 15:26:20;;;;;;;;;;;;;;;;;;4980683;28;19921;-66
2022/05/19 15:28:46;;;;;;;;;;;;;;;;;;4985371;28;19960;-68
2022/05/19 15:31:11;;;;;;;;;;;;;;;;;;5006069;28;19922;-67
2022/05/19 15:33:37;;;;;;;;;;;;;;;;;;4986016;28;19922;-66
2022/05/19 15:36:02;;;;;;;;;;;;;;;;;;4990389;28;20045;-70
2022/05/19 15:38:28;;;;;;;;;;;;;;;;;;5001112;28;19918;-69
2022/05/19 15:40:53;;;;;;;;;;;;;;;;;;4998180;28;20358;-68
2022/05/19 15:43:26;;;;;;;;;;;;;;;;;;4985121;28;20359;-69
2022/05/19 15:45:57;;;;;;;;;;;;;;;;;;4978718;28;19918;-68
2022/05/19 15:48:23;;;;;;;;;;;;;;;;;;4995831;28;19921;-67
2022/05/19 15:50:48;;;;;;;;;;;;;;;;;;4980959;28;19967;-70
2022/05/19 15:53:16;;;;;;;;;;;;;;;;;;4982511;28;19964;-66
2022/05/19 15:55:41;;;;;;;;;;;;;;;;;;4985578;28;19960;-66
2022/05/19 15:58:09;;;;;;;;;;;;;;;;;;4997706;28;19937;-65
2022/05/19 16:00:34;;;;;;;;;;;;;;;;;;5010697;28;19933;-65
2022/05/19 16:03:00;;;;;;;;;;;;;;;;;;4990463;28;19922;-64
2022/05/19 16:05:25;;;;;;;;;;;;;;;;;;4980421;28;19917;-65
2022/05/19 16:07:51;;;;;;;;;;;;;;;;;;4974556;28;21339;-64
2022/05/19 16:10:19;;;;;;;;;;;;;;;;;;4978294;28;20040;-64
2022/05/19 16:12:45;;;;;;;;;;;;;;;;;;4984529;28;19931;-65
2022/05/19 16:15:15;;;;;;;;;;;;;;;;;;4983075;28;19921;-65
2022/05/19 16:17:40;;;;;;;;;;;;;;;;;;4982533;28;19922;-64
2022/05/19 16:20:06;;;;;;;;;;;;;;;;;;4980467;28;19922;-65
2022/05/19 16:22:34;;;;;;;;;;;;;;;;;;4984342;28;19922;-64
2022/05/19 16:24:59;;;;;;;;;;;;;;;;;;4987585;28;19924;-64
2022/05/19 16:27:27;;;;;;;;;;;;;;;;;;4973106;28;19918;-64
2022/05/19 16:29:52;;;;;;;;;;;;;;;;;;4980335;28;19964;-64
2022/05/19 16:32:18;;;;;;;;;;;;;;;;;;4979559;28;19922;-64
2022/05/19 16:34:43;;;;;;;;;;;;;;;;;;4993087;28;20008;-64
2022/05/19 16:37:09;;;;;;;;;;;;;;;;;;4980939;28;19917;-63
2022/05/19 16:39:34;;;;;;;;;;;;;;;;;;4984437;28;19925;-62
2022/05/19 16:42:01;;;;;;;;;;;;;;;;;;4978871;28;20020;-63
2022/05/19 16:44:26;;;;;;;;;;;;;;;;;;4974746;28;19922;-63
2022/05/19 16:46:52;;;;;;;;;;;;;;;;;;4978939;28;19971;-64
2022/05/19 16:49:17;;;;;;;;;;;;;;;;;;5008405;28;19957;-65
2022/05/19 16:51:45;;;;;;;;;;;;;;;;;;4981694;28;19918;-62
2022/05/19 16:59:42;;;;;;;;;;;;;;;;;;4980689;28;19953;-63
2022/05/19 17:02:07;;;;;;;;;;;;;;;;;;4977179;28;19925;-64
2022/05/19 17:04:32;;;;;;;;;;;;;;;;;;4978961;28;19968;-64
2022/05/19 17:06:58;;;;;;;;;;;;;;;;;;4986818;28;19928;-64
2022/05/19 17:09:26;;;;;;;;;;;;;;;;;;4992476;28;20467;-64
2022/05/19 17:11:51;;;;;;;;;;;;;;;;;;4979446;28;19921;-65